sensor_id;sensor_type;location;lat;lon;timestamp;P1;durP1;ratioP1;P2;durP2;ratioP2
5951;SDS011;3001;42.622;23.194;2022-07-26T00:00:42;8.83;;;8.33;;
5951;SDS011;3001;42.622;23.194;2022-07-26T00:03:09;8.53;;;8.03;;
5951;SDS011;3001;42.622;23.194;2022-07-26T00:05:36;9.37;;;8.77;;
5951;SDS011;3001;42.622;23.194;2022-07-26T00:08:05;9.63;;;8.90;;
5951;SDS011;3001;42.622;23.194;2022-07-26T00:10:39;9.30;;;8.70;;
5951;SDS011;3001;42.622;23.194;2022-07-26T00:13:08;8.43;;;7.83;;
5951;SDS011;3001;42.622;23.194;2022-07-26T00:15:35;9.03;;;8.47;;
5951;SDS011;3001;42.622;23.194;2022-07-26T00:18:03;8.50;;;7.97;;
5951;SDS011;3001;42.622;23.194;2022-07-26T00:20:30;8.70;;;8.20;;
5951;SDS011;3001;42.622;23.194;2022-07-26T00:22:57;8.93;;;8.43;;
5951;SDS011;3001;42.622;23.194;2022-07-26T00:25:25;8.37;;;7.57;;
5951;SDS011;3001;42.622;23.194;2022-07-26T00:27:52;8.60;;;8.10;;
5951;SDS011;3001;42.622;23.194;2022-07-26T00:30:19;8.63;;;7.93;;
5951;SDS011;3001;42.622;23.194;2022-07-26T00:32:46;8.60;;;8.10;;
5951;SDS011;3001;42.622;23.194;2022-07-26T00:35:13;8.53;;;8.03;;
5951;SDS011;3001;42.622;23.194;2022-07-26T00:37:40;8.60;;;8.10;;
5951;SDS011;3001;42.622;23.194;2022-07-26T00:40:08;9.33;;;8.83;;
5951;SDS011;3001;42.622;23.194;2022-07-26T00:42:37;9.17;;;8.60;;
5951;SDS011;3001;42.622;23.194;2022-07-26T00:45:04;9.33;;;8.73;;
5951;SDS011;3001;42.622;23.194;2022-07-26T00:47:32;8.63;;;8.13;;
5951;SDS011;3001;42.622;23.194;2022-07-26T00:49:59;8.63;;;8.13;;
5951;SDS011;3001;42.622;23.194;2022-07-26T00:52:26;8.77;;;8.13;;
5951;SDS011;3001;42.622;23.194;2022-07-26T00:54:53;8.27;;;7.87;;
5951;SDS011;3001;42.622;23.194;2022-07-26T00:57:20;8.50;;;7.97;;
5951;SDS011;3001;42.622;23.194;2022-07-26T00:59:49;8.70;;;8.07;;
5951;SDS011;3001;42.622;23.194;2022-07-26T01:02:16;8.67;;;8.23;;
5951;SDS011;3001;42.622;23.194;2022-07-26T01:04:44;8.90;;;8.40;;
5951;SDS011;3001;42.622;23.194;2022-07-26T01:07:11;8.83;;;8.33;;
5951;SDS011;3001;42.622;23.194;2022-07-26T01:09:39;9.70;;;9.00;;
5951;SDS011;3001;42.622;23.194;2022-07-26T01:12:06;9.10;;;8.60;;
5951;SDS011;3001;42.622;23.194;2022-07-26T01:14:33;8.40;;;7.80;;
5951;SDS011;3001;42.622;23.194;2022-07-26T01:17:01;8.87;;;8.37;;
5951;SDS011;3001;42.622;23.194;2022-07-26T01:19:28;9.33;;;8.73;;
5951;SDS011;3001;42.622;23.194;2022-07-26T01:21:56;9.50;;;8.90;;
5951;SDS011;3001;42.622;23.194;2022-07-26T01:24:23;9.33;;;8.63;;
5951;SDS011;3001;42.622;23.194;2022-07-26T01:26:50;9.53;;;8.93;;
5951;SDS011;3001;42.622;23.194;2022-07-26T01:29:17;9.17;;;8.57;;
5951;SDS011;3001;42.622;23.194;2022-07-26T01:31:43;9.47;;;8.83;;
5951;SDS011;3001;42.622;23.194;2022-07-26T01:34:10;10.10;;;9.27;;
5951;SDS011;3001;42.622;23.194;2022-07-26T01:36:37;9.27;;;8.77;;
5951;SDS011;3001;42.622;23.194;2022-07-26T01:39:06;9.13;;;8.57;;
5951;SDS011;3001;42.622;23.194;2022-07-26T01:41:33;9.40;;;8.80;;
5951;SDS011;3001;42.622;23.194;2022-07-26T01:44:00;8.80;;;8.30;;
5951;SDS011;3001;42.622;23.194;2022-07-26T01:46:27;8.90;;;8.30;;
5951;SDS011;3001;42.622;23.194;2022-07-26T01:48:54;9.47;;;8.80;;
5951;SDS011;3001;42.622;23.194;2022-07-26T01:51:21;10.03;;;9.23;;
5951;SDS011;3001;42.622;23.194;2022-07-26T01:53:48;9.23;;;8.57;;
5951;SDS011;3001;42.622;23.194;2022-07-26T01:56:16;10.53;;;9.83;;
5951;SDS011;3001;42.622;23.194;2022-07-26T01:58:42;9.63;;;8.93;;
5951;SDS011;3001;42.622;23.194;2022-07-26T02:01:09;9.83;;;9.23;;
5951;SDS011;3001;42.622;23.194;2022-07-26T02:03:36;10.87;;;10.07;;
5951;SDS011;3001;42.622;23.194;2022-07-26T02:06:03;10.57;;;9.67;;
5951;SDS011;3001;42.622;23.194;2022-07-26T02:08:31;10.77;;;9.83;;
5951;SDS011;3001;42.622;23.194;2022-07-26T02:10:58;10.27;;;9.57;;
5951;SDS011;3001;42.622;23.194;2022-07-26T02:13:30;10.73;;;10.03;;
5951;SDS011;3001;42.622;23.194;2022-07-26T02:15:58;10.50;;;9.63;;
5951;SDS011;3001;42.622;23.194;2022-07-26T02:18:26;11.60;;;10.60;;
5951;SDS011;3001;42.622;23.194;2022-07-26T02:20:54;10.60;;;9.80;;
5951;SDS011;3001;42.622;23.194;2022-07-26T02:23:21;10.90;;;10.10;;
5951;SDS011;3001;42.622;23.194;2022-07-26T02:25:49;10.63;;;9.90;;
5951;SDS011;3001;42.622;23.194;2022-07-26T02:28:16;11.60;;;10.70;;
5951;SDS011;3001;42.622;23.194;2022-07-26T02:30:44;10.53;;;9.63;;
5951;SDS011;3001;42.622;23.194;2022-07-26T02:33:12;10.97;;;10.17;;
5951;SDS011;3001;42.622;23.194;2022-07-26T02:35:39;11.37;;;10.57;;
5951;SDS011;3001;42.622;23.194;2022-07-26T02:38:07;11.80;;;10.97;;
5951;SDS011;3001;42.622;23.194;2022-07-26T02:40:35;11.67;;;10.73;;
5951;SDS011;3001;42.622;23.194;2022-07-26T02:43:03;11.60;;;10.80;;
5951;SDS011;3001;42.622;23.194;2022-07-26T02:45:31;11.73;;;10.83;;
5951;SDS011;3001;42.622;23.194;2022-07-26T02:47:59;11.40;;;10.37;;
5951;SDS011;3001;42.622;23.194;2022-07-26T02:50:27;10.53;;;9.70;;
5951;SDS011;3001;42.622;23.194;2022-07-26T02:52:54;11.13;;;10.23;;
5951;SDS011;3001;42.622;23.194;2022-07-26T02:55:22;10.80;;;10.03;;
5951;SDS011;3001;42.622;23.194;2022-07-26T02:57:51;10.87;;;10.07;;
5951;SDS011;3001;42.622;23.194;2022-07-26T03:00:19;10.70;;;9.83;;
5951;SDS011;3001;42.622;23.194;2022-07-26T03:02:48;10.53;;;9.83;;
5951;SDS011;3001;42.622;23.194;2022-07-26T03:05:16;11.00;;;10.20;;
5951;SDS011;3001;42.622;23.194;2022-07-26T03:07:44;10.50;;;9.80;;
5951;SDS011;3001;42.622;23.194;2022-07-26T03:10:11;9.90;;;9.10;;
5951;SDS011;3001;42.622;23.194;2022-07-26T03:12:38;10.80;;;10.00;;
5951;SDS011;3001;42.622;23.194;2022-07-26T03:15:05;10.00;;;9.30;;
5951;SDS011;3001;42.622;23.194;2022-07-26T03:17:33;10.27;;;9.50;;
5951;SDS011;3001;42.622;23.194;2022-07-26T03:19:59;10.53;;;9.73;;
5951;SDS011;3001;42.622;23.194;2022-07-26T03:22:29;10.30;;;9.43;;
5951;SDS011;3001;42.622;23.194;2022-07-26T03:24:56;11.13;;;10.33;;
5951;SDS011;3001;42.622;23.194;2022-07-26T03:27:23;10.00;;;9.30;;
5951;SDS011;3001;42.622;23.194;2022-07-26T03:29:50;10.40;;;9.70;;
5951;SDS011;3001;42.622;23.194;2022-07-26T03:32:17;10.43;;;9.73;;
5951;SDS011;3001;42.622;23.194;2022-07-26T03:34:43;10.53;;;9.73;;
5951;SDS011;3001;42.622;23.194;2022-07-26T03:37:10;10.57;;;9.87;;
5951;SDS011;3001;42.622;23.194;2022-07-26T03:39:38;10.37;;;9.40;;
5951;SDS011;3001;42.622;23.194;2022-07-26T03:42:05;11.07;;;10.27;;
5951;SDS011;3001;42.622;23.194;2022-07-26T03:44:32;10.53;;;9.57;;
5951;SDS011;3001;42.622;23.194;2022-07-26T03:46:59;10.73;;;10.00;;
5951;SDS011;3001;42.622;23.194;2022-07-26T03:49:26;10.20;;;9.60;;
5951;SDS011;3001;42.622;23.194;2022-07-26T03:51:52;10.67;;;9.80;;
5951;SDS011;3001;42.622;23.194;2022-07-26T03:54:20;11.37;;;10.57;;
5951;SDS011;3001;42.622;23.194;2022-07-26T03:56:48;10.73;;;9.97;;
5951;SDS011;3001;42.622;23.194;2022-07-26T03:59:15;11.60;;;10.33;;
5951;SDS011;3001;42.622;23.194;2022-07-26T04:01:43;11.33;;;10.40;;
5951;SDS011;3001;42.622;23.194;2022-07-26T04:04:12;10.70;;;9.97;;
5951;SDS011;3001;42.622;23.194;2022-07-26T04:06:41;11.30;;;10.60;;
5951;SDS011;3001;42.622;23.194;2022-07-26T04:09:09;10.97;;;10.23;;
5951;SDS011;3001;42.622;23.194;2022-07-26T04:11:36;11.63;;;10.53;;
5951;SDS011;3001;42.622;23.194;2022-07-26T04:14:05;11.23;;;10.47;;
5951;SDS011;3001;42.622;23.194;2022-07-26T04:16:32;12.23;;;11.33;;
5951;SDS011;3001;42.622;23.194;2022-07-26T04:18:59;11.73;;;11.03;;
5951;SDS011;3001;42.622;23.194;2022-07-26T04:21:26;11.67;;;10.77;;
5951;SDS011;3001;42.622;23.194;2022-07-26T04:23:53;12.10;;;11.03;;
5951;SDS011;3001;42.622;23.194;2022-07-26T04:26:19;11.50;;;10.37;;
5951;SDS011;3001;42.622;23.194;2022-07-26T04:28:46;13.70;;;10.90;;
5951;SDS011;3001;42.622;23.194;2022-07-26T04:31:14;12.73;;;11.63;;
5951;SDS011;3001;42.622;23.194;2022-07-26T04:33:42;12.23;;;11.27;;
5951;SDS011;3001;42.622;23.194;2022-07-26T04:36:08;11.37;;;10.47;;
5951;SDS011;3001;42.622;23.194;2022-07-26T04:38:35;12.47;;;11.47;;
5951;SDS011;3001;42.622;23.194;2022-07-26T04:41:02;12.73;;;11.83;;
5951;SDS011;3001;42.622;23.194;2022-07-26T04:43:29;11.70;;;10.77;;
5951;SDS011;3001;42.622;23.194;2022-07-26T04:45:56;11.30;;;10.50;;
5951;SDS011;3001;42.622;23.194;2022-07-26T04:48:24;12.03;;;11.13;;
5951;SDS011;3001;42.622;23.194;2022-07-26T04:50:51;18.73;;;11.37;;
5951;SDS011;3001;42.622;23.194;2022-07-26T04:53:18;12.13;;;11.13;;
5951;SDS011;3001;42.622;23.194;2022-07-26T04:55:45;12.20;;;11.27;;
5951;SDS011;3001;42.622;23.194;2022-07-26T04:58:12;12.00;;;11.20;;
5951;SDS011;3001;42.622;23.194;2022-07-26T05:00:39;12.20;;;11.30;;
5951;SDS011;3001;42.622;23.194;2022-07-26T05:03:06;11.77;;;10.97;;
5951;SDS011;3001;42.622;23.194;2022-07-26T05:05:34;11.97;;;11.10;;
5951;SDS011;3001;42.622;23.194;2022-07-26T05:08:01;12.53;;;11.53;;
5951;SDS011;3001;42.622;23.194;2022-07-26T05:10:29;12.60;;;11.60;;
5951;SDS011;3001;42.622;23.194;2022-07-26T05:12:57;12.07;;;11.07;;
5951;SDS011;3001;42.622;23.194;2022-07-26T05:15:24;12.93;;;12.03;;
5951;SDS011;3001;42.622;23.194;2022-07-26T05:17:51;12.93;;;11.93;;
5951;SDS011;3001;42.622;23.194;2022-07-26T05:20:21;12.80;;;11.90;;
5951;SDS011;3001;42.622;23.194;2022-07-26T05:22:49;13.63;;;12.37;;
5951;SDS011;3001;42.622;23.194;2022-07-26T05:25:16;12.20;;;11.20;;
5951;SDS011;3001;42.622;23.194;2022-07-26T05:27:43;11.63;;;10.73;;
5951;SDS011;3001;42.622;23.194;2022-07-26T05:30:10;13.00;;;12.10;;
5951;SDS011;3001;42.622;23.194;2022-07-26T05:32:37;12.97;;;11.97;;
5951;SDS011;3001;42.622;23.194;2022-07-26T05:35:04;13.03;;;12.10;;
5951;SDS011;3001;42.622;23.194;2022-07-26T05:37:32;13.17;;;12.27;;
5951;SDS011;3001;42.622;23.194;2022-07-26T05:40:00;13.67;;;12.67;;
5951;SDS011;3001;42.622;23.194;2022-07-26T05:42:27;13.30;;;12.03;;
5951;SDS011;3001;42.622;23.194;2022-07-26T05:44:54;13.83;;;12.53;;
5951;SDS011;3001;42.622;23.194;2022-07-26T05:47:21;14.00;;;12.93;;
5951;SDS011;3001;42.622;23.194;2022-07-26T05:49:48;14.80;;;13.57;;
5951;SDS011;3001;42.622;23.194;2022-07-26T05:52:14;15.20;;;14.00;;
5951;SDS011;3001;42.622;23.194;2022-07-26T05:54:41;14.53;;;13.23;;
5951;SDS011;3001;42.622;23.194;2022-07-26T05:57:09;15.63;;;14.20;;
5951;SDS011;3001;42.622;23.194;2022-07-26T05:59:36;15.87;;;14.53;;
5951;SDS011;3001;42.622;23.194;2022-07-26T06:02:03;16.20;;;14.73;;
5951;SDS011;3001;42.622;23.194;2022-07-26T06:04:32;16.57;;;15.07;;
5951;SDS011;3001;42.622;23.194;2022-07-26T06:06:59;16.00;;;14.67;;
5951;SDS011;3001;42.622;23.194;2022-07-26T06:09:26;16.87;;;15.20;;
5951;SDS011;3001;42.622;23.194;2022-07-26T06:11:53;16.63;;;15.23;;
5951;SDS011;3001;42.622;23.194;2022-07-26T06:14:21;15.47;;;14.13;;
5951;SDS011;3001;42.622;23.194;2022-07-26T06:16:48;15.53;;;14.30;;
5951;SDS011;3001;42.622;23.194;2022-07-26T06:19:15;15.93;;;14.63;;
5951;SDS011;3001;42.622;23.194;2022-07-26T06:21:42;16.43;;;15.20;;
5951;SDS011;3001;42.622;23.194;2022-07-26T06:24:09;16.63;;;15.27;;
5951;SDS011;3001;42.622;23.194;2022-07-26T06:26:36;16.13;;;14.93;;
5951;SDS011;3001;42.622;23.194;2022-07-26T06:29:03;16.73;;;15.23;;
5951;SDS011;3001;42.622;23.194;2022-07-26T06:31:31;17.00;;;15.27;;
5951;SDS011;3001;42.622;23.194;2022-07-26T06:33:58;20.87;;;16.70;;
5951;SDS011;3001;42.622;23.194;2022-07-26T06:36:25;17.47;;;15.97;;
5951;SDS011;3001;42.622;23.194;2022-07-26T06:38:52;16.77;;;15.37;;
5951;SDS011;3001;42.622;23.194;2022-07-26T06:41:19;17.20;;;15.63;;
5951;SDS011;3001;42.622;23.194;2022-07-26T06:43:45;15.27;;;14.17;;
5951;SDS011;3001;42.622;23.194;2022-07-26T06:46:12;16.20;;;15.00;;
5951;SDS011;3001;42.622;23.194;2022-07-26T06:48:40;16.10;;;14.80;;
5951;SDS011;3001;42.622;23.194;2022-07-26T06:51:07;15.33;;;14.23;;
5951;SDS011;3001;42.622;23.194;2022-07-26T06:53:34;15.03;;;13.93;;
5951;SDS011;3001;42.622;23.194;2022-07-26T06:56:01;15.03;;;13.63;;
5951;SDS011;3001;42.622;23.194;2022-07-26T06:58:29;15.13;;;13.97;;
5951;SDS011;3001;42.622;23.194;2022-07-26T07:00:56;15.47;;;14.30;;
5951;SDS011;3001;42.622;23.194;2022-07-26T07:03:23;14.57;;;13.30;;
5951;SDS011;3001;42.622;23.194;2022-07-26T07:05:51;14.60;;;13.50;;
5951;SDS011;3001;42.622;23.194;2022-07-26T07:08:18;14.83;;;13.37;;
5951;SDS011;3001;42.622;23.194;2022-07-26T07:10:47;15.13;;;14.03;;
5951;SDS011;3001;42.622;23.194;2022-07-26T07:13:14;15.10;;;13.90;;
5951;SDS011;3001;42.622;23.194;2022-07-26T07:15:40;14.90;;;13.90;;
5951;SDS011;3001;42.622;23.194;2022-07-26T07:18:07;15.70;;;14.43;;
5951;SDS011;3001;42.622;23.194;2022-07-26T07:20:34;15.63;;;14.33;;
5951;SDS011;3001;42.622;23.194;2022-07-26T07:23:02;14.67;;;13.67;;
5951;SDS011;3001;42.622;23.194;2022-07-26T07:25:29;15.63;;;14.43;;
5951;SDS011;3001;42.622;23.194;2022-07-26T07:27:56;16.03;;;14.70;;
5951;SDS011;3001;42.622;23.194;2022-07-26T07:30:23;13.70;;;12.70;;
5951;SDS011;3001;42.622;23.194;2022-07-26T07:32:50;14.23;;;13.23;;
5951;SDS011;3001;42.622;23.194;2022-07-26T07:35:17;16.33;;;14.70;;
5951;SDS011;3001;42.622;23.194;2022-07-26T07:37:43;14.35;;;13.27;;
5951;SDS011;3001;42.622;23.194;2022-07-26T07:40:12;12.85;;;12.07;;
5951;SDS011;3001;42.622;23.194;2022-07-26T07:42:39;13.63;;;12.38;;
5951;SDS011;3001;42.622;23.194;2022-07-26T07:45:06;14.75;;;12.65;;
5951;SDS011;3001;42.622;23.194;2022-07-26T07:47:35;13.67;;;12.47;;
5951;SDS011;3001;42.622;23.194;2022-07-26T07:50:02;13.35;;;11.98;;
5951;SDS011;3001;42.622;23.194;2022-07-26T07:52:30;12.45;;;11.55;;
5951;SDS011;3001;42.622;23.194;2022-07-26T07:54:56;12.20;;;11.32;;
5951;SDS011;3001;42.622;23.194;2022-07-26T07:57:25;12.63;;;11.85;;
5951;SDS011;3001;42.622;23.194;2022-07-26T07:59:51;12.35;;;11.65;;
5951;SDS011;3001;42.622;23.194;2022-07-26T08:02:18;12.65;;;11.68;;
5951;SDS011;3001;42.622;23.194;2022-07-26T08:04:45;12.95;;;11.77;;
5951;SDS011;3001;42.622;23.194;2022-07-26T08:07:11;12.60;;;11.70;;
5951;SDS011;3001;42.622;23.194;2022-07-26T08:09:38;13.05;;;12.25;;
5951;SDS011;3001;42.622;23.194;2022-07-26T08:12:05;12.90;;;12.10;;
5951;SDS011;3001;42.622;23.194;2022-07-26T08:14:33;12.25;;;11.45;;
5951;SDS011;3001;42.622;23.194;2022-07-26T08:17:00;12.48;;;11.60;;
5951;SDS011;3001;42.622;23.194;2022-07-26T08:19:26;13.15;;;12.13;;
5951;SDS011;3001;42.622;23.194;2022-07-26T08:21:53;13.70;;;12.68;;
5951;SDS011;3001;42.622;23.194;2022-07-26T08:24:20;13.05;;;12.10;;
5951;SDS011;3001;42.622;23.194;2022-07-26T08:26:46;13.07;;;12.18;;
5951;SDS011;3001;42.622;23.194;2022-07-26T08:29:15;11.50;;;10.80;;
5951;SDS011;3001;42.622;23.194;2022-07-26T08:31:43;12.85;;;11.90;;
5951;SDS011;3001;42.622;23.194;2022-07-26T08:34:10;11.20;;;10.60;;
5951;SDS011;3001;42.622;23.194;2022-07-26T08:36:37;10.80;;;10.25;;
5951;SDS011;3001;42.622;23.194;2022-07-26T08:39:04;10.85;;;10.15;;
5951;SDS011;3001;42.622;23.194;2022-07-26T08:41:31;11.85;;;10.88;;
5951;SDS011;3001;42.622;23.194;2022-07-26T08:44:05;11.07;;;10.35;;
5951;SDS011;3001;42.622;23.194;2022-07-26T08:46:33;10.95;;;10.20;;
5951;SDS011;3001;42.622;23.194;2022-07-26T08:49:02;10.40;;;9.60;;
5951;SDS011;3001;42.622;23.194;2022-07-26T08:51:30;10.30;;;9.45;;
5951;SDS011;3001;42.622;23.194;2022-07-26T08:53:59;10.77;;;10.18;;
5951;SDS011;3001;42.622;23.194;2022-07-26T08:56:26;9.75;;;9.15;;
5951;SDS011;3001;42.622;23.194;2022-07-26T08:58:53;9.63;;;9.15;;
5951;SDS011;3001;42.622;23.194;2022-07-26T09:01:20;9.77;;;9.18;;
5951;SDS011;3001;42.622;23.194;2022-07-26T09:03:47;10.60;;;8.88;;
5951;SDS011;3001;42.622;23.194;2022-07-26T09:06:16;10.32;;;9.73;;
5951;SDS011;3001;42.622;23.194;2022-07-26T09:08:44;10.35;;;9.75;;
5951;SDS011;3001;42.622;23.194;2022-07-26T09:11:25;10.77;;;10.07;;
5951;SDS011;3001;42.622;23.194;2022-07-26T09:13:57;10.40;;;9.88;;
5951;SDS011;3001;42.622;23.194;2022-07-26T09:16:25;10.57;;;9.95;;
5951;SDS011;3001;42.622;23.194;2022-07-26T09:18:54;10.10;;;9.50;;
5951;SDS011;3001;42.622;23.194;2022-07-26T09:21:29;11.35;;;9.95;;
5951;SDS011;3001;42.622;23.194;2022-07-26T09:23:57;10.70;;;10.10;;
5951;SDS011;3001;42.622;23.194;2022-07-26T09:26:25;10.68;;;10.18;;
5951;SDS011;3001;42.622;23.194;2022-07-26T09:29:03;11.02;;;10.43;;
5951;SDS011;3001;42.622;23.194;2022-07-26T09:31:32;11.25;;;10.45;;
5951;SDS011;3001;42.622;23.194;2022-07-26T09:33:59;11.30;;;10.60;;
5951;SDS011;3001;42.622;23.194;2022-07-26T09:36:26;10.95;;;10.25;;
5951;SDS011;3001;42.622;23.194;2022-07-26T09:38:55;10.57;;;9.80;;
5951;SDS011;3001;42.622;23.194;2022-07-26T09:41:24;11.10;;;10.40;;
5951;SDS011;3001;42.622;23.194;2022-07-26T09:43:52;10.68;;;10.02;;
5951;SDS011;3001;42.622;23.194;2022-07-26T09:46:19;10.20;;;9.63;;
5951;SDS011;3001;42.622;23.194;2022-07-26T09:48:47;10.20;;;9.60;;
5951;SDS011;3001;42.622;23.194;2022-07-26T09:51:14;10.30;;;9.52;;
5951;SDS011;3001;42.622;23.194;2022-07-26T09:53:41;9.88;;;9.38;;
5951;SDS011;3001;42.622;23.194;2022-07-26T09:56:12;9.20;;;8.65;;
5951;SDS011;3001;42.622;23.194;2022-07-26T09:58:39;10.18;;;9.57;;
5951;SDS011;3001;42.622;23.194;2022-07-26T10:01:06;9.07;;;8.40;;
5951;SDS011;3001;42.622;23.194;2022-07-26T10:03:33;9.55;;;8.98;;
5951;SDS011;3001;42.622;23.194;2022-07-26T10:06:02;9.38;;;8.88;;
5951;SDS011;3001;42.622;23.194;2022-07-26T10:08:29;8.75;;;8.25;;
5951;SDS011;3001;42.622;23.194;2022-07-26T10:10:59;9.18;;;8.57;;
5951;SDS011;3001;42.622;23.194;2022-07-26T10:13:30;8.85;;;8.45;;
5951;SDS011;3001;42.622;23.194;2022-07-26T10:15:58;9.50;;;8.90;;
5951;SDS011;3001;42.622;23.194;2022-07-26T10:18:42;9.52;;;8.93;;
5951;SDS011;3001;42.622;23.194;2022-07-26T10:21:16;9.07;;;8.45;;
5951;SDS011;3001;42.622;23.194;2022-07-26T10:23:45;10.32;;;9.50;;
5951;SDS011;3001;42.622;23.194;2022-07-26T10:29:19;9.65;;;9.13;;
5951;SDS011;3001;42.622;23.194;2022-07-26T10:31:49;10.02;;;9.38;;
5951;SDS011;3001;42.622;23.194;2022-07-26T10:34:44;8.40;;;7.85;;
5951;SDS011;3001;42.622;23.194;2022-07-26T10:37:19;9.55;;;8.70;;
5951;SDS011;3001;42.622;23.194;2022-07-26T10:39:48;8.38;;;7.88;;
5951;SDS011;3001;42.622;23.194;2022-07-26T10:42:14;9.30;;;8.65;;
5951;SDS011;3001;42.622;23.194;2022-07-26T10:44:43;10.10;;;9.30;;
5951;SDS011;3001;42.622;23.194;2022-07-26T10:47:11;10.10;;;9.45;;
5951;SDS011;3001;42.622;23.194;2022-07-26T10:49:44;9.82;;;8.93;;
5951;SDS011;3001;42.622;23.194;2022-07-26T10:52:21;9.15;;;8.25;;
5951;SDS011;3001;42.622;23.194;2022-07-26T10:55:03;9.25;;;8.63;;
5951;SDS011;3001;42.622;23.194;2022-07-26T10:57:31;8.45;;;7.72;;
5951;SDS011;3001;42.622;23.194;2022-07-26T11:00:01;8.77;;;8.18;;
5951;SDS011;3001;42.622;23.194;2022-07-26T11:02:32;9.13;;;8.73;;
5951;SDS011;3001;42.622;23.194;2022-07-26T11:05:00;8.55;;;8.15;;
5951;SDS011;3001;42.622;23.194;2022-07-26T11:07:28;8.57;;;7.97;;
5951;SDS011;3001;42.622;23.194;2022-07-26T11:09:55;8.10;;;7.70;;
5951;SDS011;3001;42.622;23.194;2022-07-26T11:12:22;9.20;;;8.70;;
5951;SDS011;3001;42.622;23.194;2022-07-26T11:14:49;8.82;;;8.18;;
5951;SDS011;3001;42.622;23.194;2022-07-26T11:17:25;9.70;;;9.10;;
5951;SDS011;3001;42.622;23.194;2022-07-26T11:19:53;8.73;;;8.32;;
5951;SDS011;3001;42.622;23.194;2022-07-26T11:22:21;8.52;;;8.13;;
5951;SDS011;3001;42.622;23.194;2022-07-26T11:24:56;8.52;;;8.10;;
5951;SDS011;3001;42.622;23.194;2022-07-26T11:27:22;8.23;;;7.82;;
5951;SDS011;3001;42.622;23.194;2022-07-26T11:29:49;8.82;;;8.32;;
5951;SDS011;3001;42.622;23.194;2022-07-26T11:32:17;8.38;;;7.97;;
5951;SDS011;3001;42.622;23.194;2022-07-26T11:34:47;8.93;;;8.23;;
5951;SDS011;3001;42.622;23.194;2022-07-26T11:37:23;9.20;;;8.52;;
5951;SDS011;3001;42.622;23.194;2022-07-26T11:39:50;9.30;;;8.73;;
5951;SDS011;3001;42.622;23.194;2022-07-26T11:42:17;8.40;;;8.00;;
5951;SDS011;3001;42.622;23.194;2022-07-26T11:44:46;8.73;;;8.32;;
5951;SDS011;3001;42.622;23.194;2022-07-26T11:47:14;9.40;;;8.68;;
5951;SDS011;3001;42.622;23.194;2022-07-26T11:49:44;9.60;;;7.78;;
5951;SDS011;3001;42.622;23.194;2022-07-26T11:52:12;8.82;;;8.05;;
5951;SDS011;3001;42.622;23.194;2022-07-26T11:54:43;7.95;;;7.32;;
5951;SDS011;3001;42.622;23.194;2022-07-26T11:57:11;8.02;;;7.53;;
5951;SDS011;3001;42.622;23.194;2022-07-26T11:59:38;7.82;;;7.38;;
5951;SDS011;3001;42.622;23.194;2022-07-26T12:02:06;8.90;;;8.30;;
5951;SDS011;3001;42.622;23.194;2022-07-26T12:04:34;8.20;;;7.70;;
5951;SDS011;3001;42.622;23.194;2022-07-26T12:07:07;8.68;;;8.10;;
5951;SDS011;3001;42.622;23.194;2022-07-26T12:09:37;8.38;;;7.95;;
5951;SDS011;3001;42.622;23.194;2022-07-26T12:12:06;8.25;;;7.85;;
5951;SDS011;3001;42.622;23.194;2022-07-26T12:14:34;7.90;;;7.38;;
5951;SDS011;3001;42.622;23.194;2022-07-26T12:17:09;8.45;;;7.95;;
5951;SDS011;3001;42.622;23.194;2022-07-26T12:19:37;9.18;;;8.35;;
5951;SDS011;3001;42.622;23.194;2022-07-26T12:22:07;8.93;;;8.23;;
5951;SDS011;3001;42.622;23.194;2022-07-26T12:24:37;8.23;;;7.70;;
5951;SDS011;3001;42.622;23.194;2022-07-26T12:27:07;9.02;;;8.52;;
5951;SDS011;3001;42.622;23.194;2022-07-26T12:29:36;9.18;;;8.50;;
5951;SDS011;3001;42.622;23.194;2022-07-26T12:32:06;8.30;;;7.80;;
5951;SDS011;3001;42.622;23.194;2022-07-26T12:34:34;9.02;;;8.57;;
5951;SDS011;3001;42.622;23.194;2022-07-26T12:37:09;8.52;;;8.05;;
5951;SDS011;3001;42.622;23.194;2022-07-26T12:39:56;9.18;;;8.68;;
5951;SDS011;3001;42.622;23.194;2022-07-26T12:42:29;9.57;;;8.82;;
5951;SDS011;3001;42.622;23.194;2022-07-26T12:44:59;8.43;;;7.85;;
5951;SDS011;3001;42.622;23.194;2022-07-26T12:47:26;8.60;;;8.20;;
5951;SDS011;3001;42.622;23.194;2022-07-26T12:49:53;8.43;;;7.80;;
5951;SDS011;3001;42.622;23.194;2022-07-26T12:52:21;8.02;;;7.55;;
5951;SDS011;3001;42.622;23.194;2022-07-26T12:54:50;8.30;;;7.75;;
5951;SDS011;3001;42.622;23.194;2022-07-26T12:57:18;7.93;;;7.63;;
5951;SDS011;3001;42.622;23.194;2022-07-26T12:59:45;8.25;;;7.85;;
5951;SDS011;3001;42.622;23.194;2022-07-26T13:02:13;8.50;;;8.10;;
5951;SDS011;3001;42.622;23.194;2022-07-26T13:04:40;8.48;;;7.97;;
5951;SDS011;3001;42.622;23.194;2022-07-26T13:07:07;8.18;;;7.63;;
5951;SDS011;3001;42.622;23.194;2022-07-26T13:09:33;8.68;;;8.30;;
5951;SDS011;3001;42.622;23.194;2022-07-26T13:12:02;8.93;;;8.52;;
5951;SDS011;3001;42.622;23.194;2022-07-26T13:14:30;8.57;;;8.07;;
5951;SDS011;3001;42.622;23.194;2022-07-26T13:16:58;9.27;;;8.57;;
5951;SDS011;3001;42.622;23.194;2022-07-26T13:19:25;8.35;;;7.93;;
5951;SDS011;3001;42.622;23.194;2022-07-26T13:21:52;8.82;;;8.35;;
5951;SDS011;3001;42.622;23.194;2022-07-26T13:24:18;8.43;;;7.88;;
5951;SDS011;3001;42.622;23.194;2022-07-26T13:26:45;7.85;;;7.35;;
5951;SDS011;3001;42.622;23.194;2022-07-26T13:29:13;8.15;;;7.82;;
5951;SDS011;3001;42.622;23.194;2022-07-26T13:31:40;8.15;;;7.75;;
5951;SDS011;3001;42.622;23.194;2022-07-26T13:34:07;8.48;;;8.07;;
5951;SDS011;3001;42.622;23.194;2022-07-26T13:36:33;8.15;;;7.72;;
5951;SDS011;3001;42.622;23.194;2022-07-26T13:39:00;9.20;;;8.15;;
5951;SDS011;3001;42.622;23.194;2022-07-26T13:41:27;8.57;;;7.85;;
5951;SDS011;3001;42.622;23.194;2022-07-26T13:43:54;8.88;;;8.38;;
5951;SDS011;3001;42.622;23.194;2022-07-26T13:46:22;9.95;;;9.02;;
5951;SDS011;3001;42.622;23.194;2022-07-26T13:48:53;8.43;;;7.95;;
5951;SDS011;3001;42.622;23.194;2022-07-26T13:51:20;8.68;;;8.05;;
5951;SDS011;3001;42.622;23.194;2022-07-26T13:53:47;8.30;;;7.90;;
5951;SDS011;3001;42.622;23.194;2022-07-26T13:56:14;8.45;;;8.05;;
5951;SDS011;3001;42.622;23.194;2022-07-26T13:58:41;8.30;;;7.82;;
5951;SDS011;3001;42.622;23.194;2022-07-26T14:01:08;9.15;;;8.55;;
5951;SDS011;3001;42.622;23.194;2022-07-26T14:03:36;9.48;;;8.98;;
5951;SDS011;3001;42.622;23.194;2022-07-26T14:06:03;9.30;;;8.52;;
5951;SDS011;3001;42.622;23.194;2022-07-26T14:08:30;8.27;;;7.78;;
5951;SDS011;3001;42.622;23.194;2022-07-26T14:10:56;8.93;;;8.35;;
5951;SDS011;3001;42.622;23.194;2022-07-26T14:13:23;9.00;;;8.60;;
5951;SDS011;3001;42.622;23.194;2022-07-26T14:15:50;8.60;;;8.00;;
5951;SDS011;3001;42.622;23.194;2022-07-26T14:18:16;8.07;;;7.57;;
5951;SDS011;3001;42.622;23.194;2022-07-26T14:20:45;9.43;;;8.90;;
5951;SDS011;3001;42.622;23.194;2022-07-26T14:23:11;9.32;;;8.93;;
5951;SDS011;3001;42.622;23.194;2022-07-26T14:25:38;10.00;;;9.38;;
5951;SDS011;3001;42.622;23.194;2022-07-26T14:28:05;8.73;;;8.13;;
5951;SDS011;3001;42.622;23.194;2022-07-26T14:30:31;8.85;;;8.45;;
5951;SDS011;3001;42.622;23.194;2022-07-26T14:32:59;8.93;;;8.35;;
5951;SDS011;3001;42.622;23.194;2022-07-26T14:35:26;9.65;;;8.73;;
5951;SDS011;3001;42.622;23.194;2022-07-26T14:37:54;9.25;;;8.75;;
5951;SDS011;3001;42.622;23.194;2022-07-26T14:40:21;9.13;;;8.52;;
5951;SDS011;3001;42.622;23.194;2022-07-26T14:42:48;9.43;;;8.98;;
5951;SDS011;3001;42.622;23.194;2022-07-26T14:45:14;8.65;;;8.25;;
5951;SDS011;3001;42.622;23.194;2022-07-26T14:47:41;8.40;;;8.10;;
5951;SDS011;3001;42.622;23.194;2022-07-26T14:50:09;9.30;;;8.90;;
5951;SDS011;3001;42.622;23.194;2022-07-26T14:52:38;9.48;;;8.98;;
5951;SDS011;3001;42.622;23.194;2022-07-26T14:55:06;9.02;;;8.52;;